Robijn — PBEJ — position and weather

sailwx.info

Track history (hours):
 
Tides and Currents Weather Stations Pressure Air Temp Water Temp Dewpoint Dewpoint Depression Visibility Wind Speed Wind Dir Waves Ship Positions

Robijn

Last reported at 2018-Feb-18 23:38 UTC. Time now 2018-Feb-25 12:05 UTC.
Position N 54°24' E 010°12'.

Length 90 m; draft 4.6 m.

Type: Cargo ship. MMSI: 245909000.

Date/timePositionNaut miles runAvg speedWind from/ knotsBaromVisibWave heightAir tempDewpointWater temp
2018-Feb-18 23:38N 54°24' E 010°12'5 4.9
2018-Feb-18 22:37N 54°28' E 010°16'1 4.9
2018-Feb-18 22:29N 54°29' E 010°16'2 4.9
2018-Feb-18 22:00N 54°30' E 010°20'2 5.1
2018-Feb-18 21:31N 54°31' E 010°24'0 0.8
2018-Feb-18 21:00N 54°31' E 010°24'0 0.0
2018-Feb-18 20:30N 54°31' E 010°24'0 0.0
2018-Feb-18 20:00N 54°31' E 010°24'0 0.0
2018-Feb-18 16:57N 54°31' E 010°24'0 0.0
2018-Feb-18 12:51N 54°31' E 010°24'0 0.5
2018-Feb-18 12:22N 54°31' E 010°24'3 8.9
2018-Feb-18 12:00N 54°33' E 010°29'611.4
2018-Feb-18 11:30N 54°35' E 010°38'611.9
2018-Feb-18 11:00N 54°36' E 010°48'611.4
2018-Feb-18 10:30N 54°36' E 010°58'611.6
2018-Feb-18 10:00N 54°37' E 011°08'612.1
2018-Feb-18 09:30N 54°34' E 011°18'611.9
2018-Feb-18 09:00N 54°32' E 011°27'611.4
2018-Feb-18 08:30N 54°30' E 011°36'611.4
2018-Feb-18 08:00N 54°27' E 011°45'611.5
2018-Feb-18 07:29N 54°27' E 011°55'611.7
2018-Feb-18 07:00N 54°27' E 012°05'510.3
2018-Feb-18 06:30N 54°31' E 012°11'811.3
2018-Feb-18 05:45N 54°38' E 012°17'611.8
2018-Feb-18 05:16N 54°41' E 012°25'1111.9
2018-Feb-18 04:23N 54°47' E 012°41'611.9
2018-Feb-18 03:53N 54°49' E 012°50'2012.0
2018-Feb-18 02:12N 54°57' E 013°23'311.9
2018-Feb-18 01:58N 54°57' E 013°27'1011.9
2018-Feb-18 01:08N 55°01' E 013°44'611.8
2018-Feb-18 00:39N 55°03' E 013°53'611.4
2018-Feb-18 00:06N 55°05' E 014°04'511.8
2018-Feb-17 23:43N 55°08' E 014°09'311.8
2018-Feb-17 23:28N 55°11' E 014°12'511.8
2018-Feb-17 23:00N 55°15' E 014°18'611.8
2018-Feb-17 22:30N 55°19' E 014°25'811.8
2018-Feb-17 21:49N 55°25' E 014°35'511.9
2018-Feb-17 21:22N 55°28' E 014°43'411.7
2018-Feb-17 21:00N 55°30' E 014°49'611.8
2018-Feb-17 20:30N 55°33' E 014°58'611.7
2018-Feb-17 20:00N 55°36' E 015°07'611.8
2018-Feb-17 19:31N 55°39' E 015°16'611.9
2018-Feb-17 19:00N 55°42' E 015°25'611.9
2018-Feb-17 18:30N 55°46' E 015°34'611.9
2018-Feb-17 18:00N 55°48' E 015°43'611.9
2018-Feb-17 17:30N 55°52' E 015°52'612.0
2018-Feb-17 17:00N 55°55' E 016°01'612.0
2018-Feb-17 16:30N 55°58' E 016°10'612.0
2018-Feb-17 16:00N 56°01' E 016°20'612.1
2018-Feb-17 15:30N 56°03' E 016°29'2 3.2
2018-Feb-17 15:01N 56°04' E 016°32'2 3.0
2018-Feb-17 14:30N 56°05' E 016°34'611.8
2018-Feb-17 14:00N 56°08' E 016°43'611.9
2018-Feb-17 13:31N 56°12' E 016°51'611.9
2018-Feb-17 13:00N 56°15' E 016°60'27211.0
2018-Feb-16 12:18N 59°33' E 022°50'411.9
2018-Feb-16 11:58N 59°34' E 022°57'611.8
2018-Feb-16 11:27N 59°36' E 023°09'511.4
2018-Feb-16 11:01N 59°37' E 023°19'611.3
2018-Feb-16 10:31N 59°39' E 023°29'510.6
2018-Feb-16 10:00N 59°40' E 023°39'611.5
2018-Feb-16 09:31N 59°41' E 023°51'611.4
2018-Feb-16 09:01N 59°43' E 024°01'611.2
2018-Feb-16 08:30N 59°45' E 024°12'611.4
2018-Feb-16 08:00N 59°46' E 024°23'612.1
2018-Feb-16 07:30N 59°48' E 024°34'612.3
2018-Feb-16 07:00N 59°50' E 024°46'612.0
2018-Feb-16 06:30N 59°51' E 024°58'611.9
2018-Feb-16 06:00N 59°53' E 025°09'612.2
2018-Feb-16 05:30N 59°53' E 025°21'612.3
2018-Feb-16 05:01N 59°54' E 025°33'2311.8
2018-Feb-16 03:04N 60°06' E 026°13'111.7
2018-Feb-16 02:57N 60°07' E 026°15'5 9.5
2018-Feb-16 02:28N 60°10' E 026°21'4 7.8
2018-Feb-16 02:01N 60°14' E 026°24'3 6.4
2018-Feb-16 01:31N 60°16' E 026°29'5 9.2
2018-Feb-16 01:01N 60°19' E 026°35'510.3
2018-Feb-16 00:30N 60°22' E 026°43'510.0
2018-Feb-16 00:01N 60°22' E 026°53'510.4
2018-Feb-15 23:30N 60°21' E 027°04'4 7.8
2018-Feb-15 23:01N 60°24' E 027°09'5 9.8
2018-Feb-15 22:31N 60°28' E 027°08'3 6.2
2018-Feb-15 22:00N 60°31' E 027°10'0 0.5
2018-Feb-15 21:30N 60°32' E 027°10'0 0.0
2018-Feb-15 21:00N 60°32' E 027°10'0 0.0
2018-Feb-15 20:30N 60°32' E 027°10'0 0.0
2018-Feb-15 20:00N 60°32' E 027°10'0 0.0
2018-Feb-15 19:30N 60°32' E 027°10'0 0.0
2018-Feb-15 19:00N 60°32' E 027°10'0 0.0
2018-Feb-15 18:30N 60°32' E 027°10'0 0.0
2018-Feb-15 18:00N 60°32' E 027°10'0 0.0
2018-Feb-15 17:30N 60°32' E 027°10'0 0.0
2018-Feb-15 17:00N 60°32' E 027°10'0 0.0
2018-Feb-15 16:30N 60°32' E 027°10'0 0.0
2018-Feb-15 16:00N 60°32' E 027°10'0 0.0
2018-Feb-15 15:30N 60°32' E 027°10'0 0.0
2018-Feb-15 15:00N 60°32' E 027°10'0 0.0
2018-Feb-15 14:30N 60°32' E 027°10'0 0.0
2018-Feb-15 14:00N 60°32' E 027°10'0 0.0
2018-Feb-15 13:30N 60°32' E 027°10'0 0.0
2018-Feb-15 12:57N 60°32' E 027°10'0 0.0
2018-Feb-15 12:30N 60°32' E 027°10'0 0.0
2018-Feb-15 12:00N 60°32' E 027°10'0 0.0
2018-Feb-15 11:30N 60°32' E 027°10'0 0.0
2018-Feb-15 10:57N 60°32' E 027°10'0 0.0
2018-Feb-15 10:24N 60°32' E 027°10'0 0.0
2018-Feb-15 09:48N 60°32' E 027°10'0 0.0
2018-Feb-15 09:27N 60°32' E 027°10'0 0.0
2018-Feb-15 09:00N 60°32' E 027°10'0 0.0
2018-Feb-15 08:30N 60°32' E 027°10'0 0.0
2018-Feb-15 07:54N 60°32' E 027°10'0 0.0
2018-Feb-15 07:30N 60°32' E 027°10'0 0.0
2018-Feb-15 07:00N 60°32' E 027°10'0 0.0
2018-Feb-15 06:24N 60°32' E 027°10'0 0.0
2018-Feb-15 06:00N 60°32' E 027°10'0 0.0
2018-Feb-15 05:30N 60°32' E 027°10'0 0.0
2018-Feb-15 05:00N 60°32' E 027°10'0 0.0
2018-Feb-15 04:27N 60°32' E 027°10'0 0.0
2018-Feb-15 04:00N 60°32' E 027°10'0 0.0
2018-Feb-15 03:30N 60°32' E 027°10'0 0.0
2018-Feb-15 03:00N 60°32' E 027°10'0 0.0
2018-Feb-15 02:30N 60°32' E 027°10'0 0.0
2018-Feb-15 01:57N 60°32' E 027°10'0 0.0
2018-Feb-15 01:30N 60°32' E 027°10'0 0.0
2018-Feb-15 01:00N 60°32' E 027°10'0 0.0
2018-Feb-15 00:30N 60°32' E 027°10'0 0.0
2018-Feb-15 00:00N 60°32' E 027°10'0 0.0
2018-Feb-14 23:30N 60°32' E 027°10'2 3.5
2018-Feb-14 23:00N 60°30' E 027°09'510.3
2018-Feb-14 22:30N 60°25' E 027°09'5 9.5
2018-Feb-14 22:00N 60°21' E 027°05'611.5
2018-Feb-14 21:30N 60°22' E 026°54'510.6
2018-Feb-14 21:01N 60°22' E 026°43'5 9.5
2018-Feb-14 20:30N 60°19' E 026°36'510.6
2018-Feb-14 20:00N 60°16' E 026°28'4 8.4
2018-Feb-14 19:31N 60°12' E 026°23'510.1
2018-Feb-14 19:01N 60°08' E 026°17'1812.0
2018-Feb-14 17:31N 59°58' E 025°47'012.1
2018-Feb-14 17:29N 59°58' E 025°47'612.0
2018-Feb-14 17:00N 59°57' E 025°36'612.1
2018-Feb-14 16:30N 59°56' E 025°24'612.2
2018-Feb-14 16:00N 59°55' E 025°12'612.2
2018-Feb-14 15:30N 59°53' E 024°60'612.1
2018-Feb-14 15:00N 59°52' E 024°48'612.0
2018-Feb-14 14:30N 59°51' E 024°36'611.5
2018-Feb-14 14:01N 59°49' E 024°25'811.9
2018-Feb-14 13:19N 59°47' E 024°10'412.2
2018-Feb-14 13:00N 59°46' E 024°03'612.0
2018-Feb-14 12:30N 59°44' E 023°51'612.0
2018-Feb-14 12:00N 59°43' E 023°40'611.7
2018-Feb-14 11:30N 59°41' E 023°29'612.1
2018-Feb-14 11:00N 59°40' E 023°17'612.3
2018-Feb-14 10:30N 59°39' E 023°05'712.1
2018-Feb-14 09:58N 59°37' E 022°52'2011.5
2018-Feb-14 08:15N 59°34' E 022°13'1011.7
2018-Feb-14 07:23N 59°34' E 021°54'511.7
2018-Feb-14 07:00N 59°35' E 021°45'611.6
2018-Feb-14 06:30N 59°35' E 021°33'611.7
2018-Feb-14 06:01N 59°37' E 021°22'611.8
2018-Feb-14 05:30N 59°38' E 021°11'4111.4
2018-Feb-14 01:57N 59°45' E 019°51'511.6
2018-Feb-14 01:30N 59°46' E 019°42'612.2
2018-Feb-14 01:00N 59°51' E 019°34'612.4
2018-Feb-14 00:31N 59°56' E 019°26'612.3
2018-Feb-14 00:01N 60°01' E 019°18'612.1
2018-Feb-13 23:30N 60°05' E 019°10'612.2
2018-Feb-13 23:00N 60°10' E 019°02'612.1
2018-Feb-13 22:30N 60°16' E 019°01'612.3
2018-Feb-13 22:00N 60°22' E 018°60'612.3
2018-Feb-13 21:29N 60°28' E 018°58'  
2018-Feb-11 16:04N 60°24' E 019°01'0 9.4
2018-Feb-11 16:00N 60°24' E 019°01'5 9.3
2018-Feb-11 15:28N 60°19' E 019°01'4 9.4
2018-Feb-11 15:00N 60°15' E 019°03'5 9.2
2018-Feb-11 14:30N 60°10' E 019°06'5 9.5
2018-Feb-11 14:00N 60°07' E 019°13'5 9.6
2018-Feb-11 13:30N 60°03' E 019°18'5 9.5
2018-Feb-11 13:00N 59°59' E 019°24'5 9.6
2018-Feb-11 12:30N 59°56' E 019°30'229 8.8
2018-Feb-10 10:29N 56°21' E 017°00'510.1
2018-Feb-10 10:00N 56°17' E 016°57'510.5
2018-Feb-10 09:30N 56°12' E 016°53'510.5
2018-Feb-10 09:00N 56°07' E 016°49'510.2
2018-Feb-10 08:30N 56°03' E 016°43'510.2
2018-Feb-10 08:00N 56°01' E 016°35'510.2
2018-Feb-10 07:30N 55°58' E 016°28'510.0
2018-Feb-10 07:00N 55°55' E 016°20'5 9.8
2018-Feb-10 06:30N 55°53' E 016°12'510.1
2018-Feb-10 06:00N 55°50' E 016°05'510.0
2018-Feb-10 05:30N 55°47' E 015°58'510.0
2018-Feb-10 05:00N 55°44' E 015°50'5 9.7
2018-Feb-10 04:30N 55°41' E 015°44'5 9.5
2018-Feb-10 04:00N 55°40' E 015°36'5 9.5
2018-Feb-10 03:30N 55°39' E 015°28'5 9.5
2018-Feb-10 03:00N 55°37' E 015°20'5 9.4
2018-Feb-10 02:30N 55°34' E 015°13'5 9.2
2018-Feb-10 01:57N 55°32' E 015°05'4 9.3
2018-Feb-10 01:29N 55°30' E 014°58'4 9.2
2018-Feb-10 01:00N 55°28' E 014°51'5 9.4
2018-Feb-10 00:30N 55°25' E 014°44'5 9.6
2018-Feb-10 00:00N 55°23' E 014°37'610.1
2018-Feb-09 23:24N 55°18' E 014°30'410.1
2018-Feb-09 23:00N 55°15' E 014°25'210.0
2018-Feb-09 22:45N 55°13' E 014°22'46 9.6
2018-Feb-09 18:00N 55°14' E 013°02'15 9.8
2018-Feb-09 16:30N 55°19' E 012°38'20 9.8
2018-Feb-09 14:30N 55°39' E 012°41'10 9.6
2018-Feb-09 13:30N 55°48' E 012°43'5 9.7
2018-Feb-09 13:00N 55°53' E 012°39'9 9.3
2018-Feb-09 12:00N 56°02' E 012°38'4 7.0
2018-Feb-09 11:30N 56°05' E 012°35'4 7.5
2018-Feb-09 11:00N 56°07' E 012°30'5 9.0
2018-Feb-09 10:30N 56°10' E 012°23'510.6
2018-Feb-09 10:00N 56°13' E 012°16'611.0
2018-Feb-09 09:30N 56°16' E 012°07'  
Track history (hours):
 
Tides and Currents Weather Stations Pressure Air Temp Water Temp Dewpoint Dewpoint Depression Visibility Wind Speed Wind Dir Waves Ship Positions

Robijn

Last reported at 2018-Feb-18 23:38 UTC. Time now 2018-Feb-25 12:05 UTC.
Position N 54°24' E 010°12'.

Length 90 m; draft 4.6 m.

Type: Cargo ship. MMSI: 245909000.

Date/timePositionNaut miles runAvg speedWind from/ knotsBaromVisibWave heightAir tempDewpointWater temp
2018-Feb-18 23:38N 54°24' E 010°12'5 4.9
2018-Feb-18 22:37N 54°28' E 010°16'1 4.9
2018-Feb-18 22:29N 54°29' E 010°16'2 4.9
2018-Feb-18 22:00N 54°30' E 010°20'2 5.1
2018-Feb-18 21:31N 54°31' E 010°24'0 0.8
2018-Feb-18 21:00N 54°31' E 010°24'0 0.0
2018-Feb-18 20:30N 54°31' E 010°24'0 0.0
2018-Feb-18 20:00N 54°31' E 010°24'0 0.0
2018-Feb-18 16:57N 54°31' E 010°24'0 0.0
2018-Feb-18 12:51N 54°31' E 010°24'0 0.5
2018-Feb-18 12:22N 54°31' E 010°24'3 8.9
2018-Feb-18 12:00N 54°33' E 010°29'611.4
2018-Feb-18 11:30N 54°35' E 010°38'611.9
2018-Feb-18 11:00N 54°36' E 010°48'611.4
2018-Feb-18 10:30N 54°36' E 010°58'611.6
2018-Feb-18 10:00N 54°37' E 011°08'612.1
2018-Feb-18 09:30N 54°34' E 011°18'611.9
2018-Feb-18 09:00N 54°32' E 011°27'611.4
2018-Feb-18 08:30N 54°30' E 011°36'611.4
2018-Feb-18 08:00N 54°27' E 011°45'611.5
2018-Feb-18 07:29N 54°27' E 011°55'611.7
2018-Feb-18 07:00N 54°27' E 012°05'510.3
2018-Feb-18 06:30N 54°31' E 012°11'811.3
2018-Feb-18 05:45N 54°38' E 012°17'611.8
2018-Feb-18 05:16N 54°41' E 012°25'1111.9
2018-Feb-18 04:23N 54°47' E 012°41'611.9
2018-Feb-18 03:53N 54°49' E 012°50'2012.0
2018-Feb-18 02:12N 54°57' E 013°23'311.9
2018-Feb-18 01:58N 54°57' E 013°27'1011.9
2018-Feb-18 01:08N 55°01' E 013°44'611.8
2018-Feb-18 00:39N 55°03' E 013°53'611.4
2018-Feb-18 00:06N 55°05' E 014°04'511.8
2018-Feb-17 23:43N 55°08' E 014°09'311.8
2018-Feb-17 23:28N 55°11' E 014°12'511.8
2018-Feb-17 23:00N 55°15' E 014°18'611.8
2018-Feb-17 22:30N 55°19' E 014°25'811.8
2018-Feb-17 21:49N 55°25' E 014°35'511.9
2018-Feb-17 21:22N 55°28' E 014°43'411.7
2018-Feb-17 21:00N 55°30' E 014°49'611.8
2018-Feb-17 20:30N 55°33' E 014°58'611.7
2018-Feb-17 20:00N 55°36' E 015°07'611.8
2018-Feb-17 19:31N 55°39' E 015°16'611.9
2018-Feb-17 19:00N 55°42' E 015°25'611.9
2018-Feb-17 18:30N 55°46' E 015°34'611.9
2018-Feb-17 18:00N 55°48' E 015°43'611.9
2018-Feb-17 17:30N 55°52' E 015°52'612.0
2018-Feb-17 17:00N 55°55' E 016°01'612.0
2018-Feb-17 16:30N 55°58' E 016°10'612.0
2018-Feb-17 16:00N 56°01' E 016°20'612.1
2018-Feb-17 15:30N 56°03' E 016°29'2 3.2
2018-Feb-17 15:01N 56°04' E 016°32'2 3.0
2018-Feb-17 14:30N 56°05' E 016°34'611.8
2018-Feb-17 14:00N 56°08' E 016°43'611.9
2018-Feb-17 13:31N 56°12' E 016°51'611.9
2018-Feb-17 13:00N 56°15' E 016°60'27211.0
2018-Feb-16 12:18N 59°33' E 022°50'411.9
2018-Feb-16 11:58N 59°34' E 022°57'611.8
2018-Feb-16 11:27N 59°36' E 023°09'511.4
2018-Feb-16 11:01N 59°37' E 023°19'611.3
2018-Feb-16 10:31N 59°39' E 023°29'510.6
2018-Feb-16 10:00N 59°40' E 023°39'611.5
2018-Feb-16 09:31N 59°41' E 023°51'611.4
2018-Feb-16 09:01N 59°43' E 024°01'611.2
2018-Feb-16 08:30N 59°45' E 024°12'611.4
2018-Feb-16 08:00N 59°46' E 024°23'612.1
2018-Feb-16 07:30N 59°48' E 024°34'612.3
2018-Feb-16 07:00N 59°50' E 024°46'612.0
2018-Feb-16 06:30N 59°51' E 024°58'611.9
2018-Feb-16 06:00N 59°53' E 025°09'612.2
2018-Feb-16 05:30N 59°53' E 025°21'612.3
2018-Feb-16 05:01N 59°54' E 025°33'2311.8
2018-Feb-16 03:04N 60°06' E 026°13'111.7
2018-Feb-16 02:57N 60°07' E 026°15'5 9.5
2018-Feb-16 02:28N 60°10' E 026°21'4 7.8
2018-Feb-16 02:01N 60°14' E 026°24'3 6.4
2018-Feb-16 01:31N 60°16' E 026°29'5 9.2
2018-Feb-16 01:01N 60°19' E 026°35'510.3
2018-Feb-16 00:30N 60°22' E 026°43'510.0
2018-Feb-16 00:01N 60°22' E 026°53'510.4
2018-Feb-15 23:30N 60°21' E 027°04'4 7.8
2018-Feb-15 23:01N 60°24' E 027°09'5 9.8
2018-Feb-15 22:31N 60°28' E 027°08'3 6.2
2018-Feb-15 22:00N 60°31' E 027°10'0 0.5
2018-Feb-15 21:30N 60°32' E 027°10'0 0.0
2018-Feb-15 21:00N 60°32' E 027°10'0 0.0
2018-Feb-15 20:30N 60°32' E 027°10'0 0.0
2018-Feb-15 20:00N 60°32' E 027°10'0 0.0
2018-Feb-15 19:30N 60°32' E 027°10'0 0.0
2018-Feb-15 19:00N 60°32' E 027°10'0 0.0
2018-Feb-15 18:30N 60°32' E 027°10'0 0.0
2018-Feb-15 18:00N 60°32' E 027°10'0 0.0
2018-Feb-15 17:30N 60°32' E 027°10'0 0.0
2018-Feb-15 17:00N 60°32' E 027°10'0 0.0
2018-Feb-15 16:30N 60°32' E 027°10'0 0.0
2018-Feb-15 16:00N 60°32' E 027°10'0 0.0
2018-Feb-15 15:30N 60°32' E 027°10'0 0.0
2018-Feb-15 15:00N 60°32' E 027°10'0 0.0
2018-Feb-15 14:30N 60°32' E 027°10'0 0.0
2018-Feb-15 14:00N 60°32' E 027°10'0 0.0
2018-Feb-15 13:30N 60°32' E 027°10'0 0.0
2018-Feb-15 12:57N 60°32' E 027°10'0 0.0
2018-Feb-15 12:30N 60°32' E 027°10'0 0.0
2018-Feb-15 12:00N 60°32' E 027°10'0 0.0
2018-Feb-15 11:30N 60°32' E 027°10'0 0.0
2018-Feb-15 10:57N 60°32' E 027°10'0 0.0
2018-Feb-15 10:24N 60°32' E 027°10'0 0.0
2018-Feb-15 09:48N 60°32' E 027°10'0 0.0
2018-Feb-15 09:27N 60°32' E 027°10'0 0.0
2018-Feb-15 09:00N 60°32' E 027°10'0 0.0
2018-Feb-15 08:30N 60°32' E 027°10'0 0.0
2018-Feb-15 07:54N 60°32' E 027°10'0 0.0
2018-Feb-15 07:30N 60°32' E 027°10'0 0.0
2018-Feb-15 07:00N 60°32' E 027°10'0 0.0
2018-Feb-15 06:24N 60°32' E 027°10'0 0.0
2018-Feb-15 06:00N 60°32' E 027°10'0 0.0
2018-Feb-15 05:30N 60°32' E 027°10'0 0.0
2018-Feb-15 05:00N 60°32' E 027°10'0 0.0
2018-Feb-15 04:27N 60°32' E 027°10'0 0.0
2018-Feb-15 04:00N 60°32' E 027°10'0 0.0
2018-Feb-15 03:30N 60°32' E 027°10'0 0.0
2018-Feb-15 03:00N 60°32' E 027°10'0 0.0
2018-Feb-15 02:30N 60°32' E 027°10'0 0.0
2018-Feb-15 01:57N 60°32' E 027°10'0 0.0
2018-Feb-15 01:30N 60°32' E 027°10'0 0.0
2018-Feb-15 01:00N 60°32' E 027°10'0 0.0
2018-Feb-15 00:30N 60°32' E 027°10'0 0.0
2018-Feb-15 00:00N 60°32' E 027°10'0 0.0
2018-Feb-14 23:30N 60°32' E 027°10'2 3.5
2018-Feb-14 23:00N 60°30' E 027°09'510.3
2018-Feb-14 22:30N 60°25' E 027°09'5 9.5
2018-Feb-14 22:00N 60°21' E 027°05'611.5
2018-Feb-14 21:30N 60°22' E 026°54'510.6
2018-Feb-14 21:01N 60°22' E 026°43'5 9.5
2018-Feb-14 20:30N 60°19' E 026°36'510.6
2018-Feb-14 20:00N 60°16' E 026°28'4 8.4
2018-Feb-14 19:31N 60°12' E 026°23'510.1
2018-Feb-14 19:01N 60°08' E 026°17'1812.0
2018-Feb-14 17:31N 59°58' E 025°47'012.1
2018-Feb-14 17:29N 59°58' E 025°47'612.0
2018-Feb-14 17:00N 59°57' E 025°36'612.1
2018-Feb-14 16:30N 59°56' E 025°24'612.2
2018-Feb-14 16:00N 59°55' E 025°12'612.2
2018-Feb-14 15:30N 59°53' E 024°60'612.1
2018-Feb-14 15:00N 59°52' E 024°48'612.0
2018-Feb-14 14:30N 59°51' E 024°36'611.5
2018-Feb-14 14:01N 59°49' E 024°25'811.9
2018-Feb-14 13:19N 59°47' E 024°10'412.2
2018-Feb-14 13:00N 59°46' E 024°03'612.0
2018-Feb-14 12:30N 59°44' E 023°51'612.0
2018-Feb-14 12:00N 59°43' E 023°40'611.7
2018-Feb-14 11:30N 59°41' E 023°29'612.1
2018-Feb-14 11:00N 59°40' E 023°17'612.3
2018-Feb-14 10:30N 59°39' E 023°05'712.1
2018-Feb-14 09:58N 59°37' E 022°52'2011.5
2018-Feb-14 08:15N 59°34' E 022°13'1011.7
2018-Feb-14 07:23N 59°34' E 021°54'511.7
2018-Feb-14 07:00N 59°35' E 021°45'611.6
2018-Feb-14 06:30N 59°35' E 021°33'611.7
2018-Feb-14 06:01N 59°37' E 021°22'611.8
2018-Feb-14 05:30N 59°38' E 021°11'4111.4
2018-Feb-14 01:57N 59°45' E 019°51'511.6
2018-Feb-14 01:30N 59°46' E 019°42'612.2
2018-Feb-14 01:00N 59°51' E 019°34'612.4
2018-Feb-14 00:31N 59°56' E 019°26'612.3
2018-Feb-14 00:01N 60°01' E 019°18'612.1
2018-Feb-13 23:30N 60°05' E 019°10'612.2
2018-Feb-13 23:00N 60°10' E 019°02'612.1
2018-Feb-13 22:30N 60°16' E 019°01'612.3
2018-Feb-13 22:00N 60°22' E 018°60'612.3
2018-Feb-13 21:29N 60°28' E 018°58'  
2018-Feb-11 16:04N 60°24' E 019°01'0 9.4
2018-Feb-11 16:00N 60°24' E 019°01'5 9.3
2018-Feb-11 15:28N 60°19' E 019°01'4 9.4
2018-Feb-11 15:00N 60°15' E 019°03'5 9.2
2018-Feb-11 14:30N 60°10' E 019°06'5 9.5
2018-Feb-11 14:00N 60°07' E 019°13'5 9.6
2018-Feb-11 13:30N 60°03' E 019°18'5 9.5
2018-Feb-11 13:00N 59°59' E 019°24'5 9.6
2018-Feb-11 12:30N 59°56' E 019°30'229 8.8
2018-Feb-10 10:29N 56°21' E 017°00'510.1
2018-Feb-10 10:00N 56°17' E 016°57'510.5
2018-Feb-10 09:30N 56°12' E 016°53'510.5
2018-Feb-10 09:00N 56°07' E 016°49'510.2
2018-Feb-10 08:30N 56°03' E 016°43'510.2
2018-Feb-10 08:00N 56°01' E 016°35'510.2
2018-Feb-10 07:30N 55°58' E 016°28'510.0
2018-Feb-10 07:00N 55°55' E 016°20'5 9.8
2018-Feb-10 06:30N 55°53' E 016°12'510.1
2018-Feb-10 06:00N 55°50' E 016°05'510.0
2018-Feb-10 05:30N 55°47' E 015°58'510.0
2018-Feb-10 05:00N 55°44' E 015°50'5 9.7
2018-Feb-10 04:30N 55°41' E 015°44'5 9.5
2018-Feb-10 04:00N 55°40' E 015°36'5 9.5
2018-Feb-10 03:30N 55°39' E 015°28'5 9.5
2018-Feb-10 03:00N 55°37' E 015°20'5 9.4
2018-Feb-10 02:30N 55°34' E 015°13'5 9.2
2018-Feb-10 01:57N 55°32' E 015°05'4 9.3
2018-Feb-10 01:29N 55°30' E 014°58'4 9.2
2018-Feb-10 01:00N 55°28' E 014°51'5 9.4
2018-Feb-10 00:30N 55°25' E 014°44'5 9.6
2018-Feb-10 00:00N 55°23' E 014°37'610.1
2018-Feb-09 23:24N 55°18' E 014°30'410.1
2018-Feb-09 23:00N 55°15' E 014°25'210.0
2018-Feb-09 22:45N 55°13' E 014°22'46 9.6
2018-Feb-09 18:00N 55°14' E 013°02'15 9.8
2018-Feb-09 16:30N 55°19' E 012°38'20 9.8
2018-Feb-09 14:30N 55°39' E 012°41'10 9.6
2018-Feb-09 13:30N 55°48' E 012°43'5 9.7
2018-Feb-09 13:00N 55°53' E 012°39'9 9.3
2018-Feb-09 12:00N 56°02' E 012°38'4 7.0
2018-Feb-09 11:30N 56°05' E 012°35'4 7.5
2018-Feb-09 11:00N 56°07' E 012°30'5 9.0
2018-Feb-09 10:30N 56°10' E 012°23'510.6
2018-Feb-09 10:00N 56°13' E 012°16'611.0
2018-Feb-09 09:30N 56°16' E 012°07'  

Dump ship's entire track history